Time;durP1;ratioP1;P1;durP2;ratioP2;P2;SDS_P1;SDS_P2;PMS_P1;PMS_P2;Temp;Humidity;BMP_temperature;BMP_pressure;BME280_temperature;BME280_humidity;BME280_pressure;Samples;Min_cycle;Max_cycle;Signal;HPM_P1;HPM_P2
2022/12/15 00:40:36;;;;;;;26.95;15.45;;;;;;;-5.97;71.93;97665.63;5026153;28;20040;-78
2022/12/15 00:43:01;;;;;;;28.98;15.13;;;;;;;-5.96;71.14;97677.63;5026469;28;20026;-78
2022/12/15 00:46:53;;;;;;;31.52;15.15;;;;;;;-7.17;74.76;97676.44;5025834;28;20025;-78
2022/12/15 00:48:12;;;;;;;27.83;15.25;;;;;;;-6.07;71.88;97686.59;5013392;28;20052;-78
2022/12/15 00:50:52;;;;;;;30.30;17.10;;;;;;;-5.98;71.07;97685.56;5024732;28;20473;-78
2022/12/15 01:20:40;;;;;;;29.77;15.93;;;;;;;-6.00;71.30;97708.31;5027881;28;20044;-78
2022/12/15 01:23:06;;;;;;;38.00;18.20;;;;;;;-6.07;71.19;97704.78;5029005;28;20025;-78
2022/12/15 01:25:31;;;;;;;29.73;15.45;;;;;;;-6.18;71.22;97708.59;5022314;28;20057;-79
2022/12/15 01:27:56;;;;;;;28.20;15.63;;;;;;;-6.07;71.61;97717.78;5024693;28;20962;-79
2022/12/15 01:30:25;;;;;;;30.88;16.58;;;;;;;-5.94;70.93;97717.22;5016356;28;20030;-79
2022/12/15 01:32:50;;;;;;;30.88;15.63;;;;;;;-5.96;70.78;97721.78;5020544;28;20121;-79
2022/12/15 01:35:16;;;;;;;28.20;15.85;;;;;;;-6.94;72.24;97720.59;5029284;28;20120;-79
2022/12/15 01:37:42;;;;;;;34.97;15.68;;;;;;;-6.23;71.44;97721.28;5028464;28;20032;-79
2022/12/15 01:42:56;;;;;;;34.53;16.50;;;;;;;-6.33;71.48;97702.50;5032382;28;20041;-79
2022/12/15 01:45:27;;;;;;;28.35;15.75;;;;;;;-6.50;72.82;97710.53;5032240;28;20033;-79
2022/12/15 01:47:55;;;;;;;35.53;18.35;;;;;;;-7.05;72.67;97702.81;5031611;28;20033;-79
2022/12/15 01:50:22;;;;;;;38.80;18.33;;;;;;;-8.67;77.17;97719.28;5030101;28;20037;-78
2022/12/15 01:52:48;;;;;;;41.75;20.65;;;;;;;-9.07;79.71;97732.00;5015582;28;20027;-78
2022/12/15 01:55:16;;;;;;;37.72;19.52;;;;;;;-7.73;77.74;97710.22;5027871;28;20041;-79
2022/12/15 01:57:42;;;;;;;43.60;19.10;;;;;;;-6.59;74.17;97716.75;5032767;28;20453;-79
2022/12/15 02:00:08;;;;;;;41.50;18.95;;;;;;;-6.35;72.87;97708.84;5015041;28;20474;-79
2022/12/15 02:02:39;;;;;;;35.22;18.27;;;;;;;-6.51;72.73;97743.47;5027015;28;20044;-79
2022/12/15 02:05:06;;;;;;;36.25;17.40;;;;;;;-6.31;71.89;97736.09;5011644;28;20049;-79
2022/12/15 02:07:31;;;;;;;33.70;17.65;;;;;;;-7.22;73.28;97721.97;5031026;28;20496;-79
2022/12/15 02:10:00;;;;;;;36.45;17.55;;;;;;;-6.63;73.59;97752.59;5027091;28;20033;-79
2022/12/15 02:12:35;;;;;;;32.55;17.25;;;;;;;-7.34;74.91;97744.03;5032967;28;20033;-79
2022/12/15 02:15:34;;;;;;;39.70;20.63;;;;;;;-7.57;72.34;97745.63;5032648;28;20052;-79
2022/12/15 02:18:08;;;;;;;36.03;16.05;;;;;;;-6.80;72.38;97758.00;5047651;28;20271;-79
2022/12/15 02:20:53;;;;;;;37.17;17.63;;;;;;;-6.51;72.18;97756.44;5024508;28;20037;-79
2022/12/15 02:23:40;;;;;;;36.10;16.88;;;;;;;-6.32;71.20;97763.03;5033221;28;20041;-79
2022/12/15 02:26:11;;;;;;;35.03;19.88;;;;;;;-8.24;74.16;97783.72;5032019;28;20085;-79
2022/12/15 02:29:15;;;;;;;34.42;17.42;;;;;;;-6.87;74.47;97770.81;5031334;28;20056;-79
2022/12/15 02:31:48;;;;;;;33.05;17.13;;;;;;;-6.80;72.92;97758.81;5008613;28;20049;-79
2022/12/15 02:34:17;;;;;;;31.85;16.55;;;;;;;-6.32;71.03;97779.41;5049301;28;20113;-79
2022/12/15 02:36:48;;;;;;;38.75;17.90;;;;;;;-6.38;70.94;97771.50;5026796;28;20025;-79
2022/12/15 02:39:13;;;;;;;29.85;16.70;;;;;;;-6.40;70.75;97758.66;5031864;28;20044;-79
2022/12/15 02:41:42;;;;;;;28.48;16.90;;;;;;;-6.33;70.80;97758.81;5036257;28;20029;-79
2022/12/15 02:44:49;;;;;;;37.28;17.58;;;;;;;-6.31;70.58;97775.03;5030337;28;20033;-79
2022/12/15 02:47:39;;;;;;;34.05;18.00;;;;;;;-6.54;70.93;97771.53;5032228;28;20451;-79
2022/12/15 02:50:10;;;;;;;37.10;19.02;;;;;;;-6.45;70.83;97780.94;5029300;28;20049;-79
2022/12/15 02:53:05;;;;;;;36.70;18.15;;;;;;;-6.38;70.83;97780.09;5033882;28;20083;-79
2022/12/15 02:55:45;;;;;;;48.20;21.17;;;;;;;-7.82;72.12;97796.63;5032999;28;20026;-79
2022/12/15 02:58:19;;;;;;;38.78;19.08;;;;;;;-7.44;73.36;97788.22;5033856;28;20041;-79
2022/12/15 03:01:02;;;;;;;33.50;17.98;;;;;;;-7.47;73.43;97782.56;5026715;28;20444;-78
2022/12/15 03:03:29;;;;;;;40.20;18.58;;;;;;;-7.76;72.72;97781.25;5034626;28;20034;-79
2022/12/15 03:05:56;;;;;;;50.45;19.67;;;;;;;-7.36;74.78;97792.63;5035023;28;20064;-79
2022/12/15 03:08:22;;;;;;;43.22;20.08;;;;;;;-9.02;74.65;97800.38;5031421;28;20653;-78
2022/12/15 03:10:50;;;;;;;43.70;18.83;;;;;;;-7.03;74.06;97791.59;5032957;28;20057;-79
2022/12/15 03:13:15;;;;;;;34.20;18.45;;;;;;;-7.98;75.12;97788.81;5032440;28;20048;-79
2022/12/15 03:15:40;;;;;;;32.33;17.77;;;;;;;-6.87;72.79;97807.94;5003958;28;20029;-79
2022/12/15 03:18:06;;;;;;;35.65;18.77;;;;;;;-6.80;72.11;97800.31;5031888;28;20108;-79
2022/12/15 03:20:31;;;;;;;42.67;19.02;;;;;;;-7.25;71.71;97797.47;5033122;28;20035;-79
2022/12/15 03:22:56;;;;;;;42.40;19.45;;;;;;;-6.56;70.72;97802.84;5036563;28;20124;-79
2022/12/15 03:25:22;;;;;;;34.97;17.08;;;;;;;-7.05;72.39;97809.09;5034167;28;20037;-79
2022/12/15 03:27:47;;;;;;;40.13;17.88;;;;;;;-6.61;71.56;97801.72;5031670;28;20064;-79
2022/12/15 03:30:13;;;;;;;35.92;17.50;;;;;;;-6.47;70.96;97808.81;5032041;28;20465;-79
2022/12/15 03:32:38;;;;;;;38.72;17.55;;;;;;;-6.60;71.39;97822.34;5036349;28;20029;-79
2022/12/15 03:35:04;;;;;;;34.08;17.85;;;;;;;-6.79;71.67;97816.69;5015117;28;20111;-79
2022/12/15 03:37:29;;;;;;;36.85;16.77;;;;;;;-6.68;70.67;97822.31;5033106;28;20083;-79
2022/12/15 03:39:55;;;;;;;33.58;17.35;;;;;;;-6.41;70.54;97819.34;5031458;28;20080;-79
2022/12/15 03:45:05;;;;;;;42.83;18.88;;;;;;;-6.51;70.74;97826.50;5032118;28;20099;-79
2022/12/15 03:47:30;;;;;;;33.42;16.65;;;;;;;-6.51;70.83;97818.72;5034594;28;20029;-79
2022/12/15 03:49:56;;;;;;;36.25;17.13;;;;;;;-6.48;71.16;97818.41;5033070;28;20048;-79
2022/12/15 03:52:22;;;;;;;43.60;17.60;;;;;;;-6.47;71.04;97808.81;5030778;28;20029;-79
2022/12/15 03:54:47;;;;;;;35.67;18.92;;;;;;;-7.37;71.61;97822.06;5030157;28;20041;-79
2022/12/15 03:57:12;;;;;;;41.40;19.88;;;;;;;-7.08;73.88;97823.22;5026240;28;20033;-79
2022/12/15 03:59:38;;;;;;;33.45;18.27;;;;;;;-6.65;71.98;97827.19;5028920;28;20041;-79
2022/12/15 04:02:03;;;;;;;37.55;18.40;;;;;;;-6.89;71.13;97837.63;5027599;28;20029;-79
2022/12/15 04:04:28;;;;;;;40.45;19.17;;;;;;;-6.48;71.47;97841.75;5025814;28;20613;-79
2022/12/15 04:06:54;;;;;;;33.60;18.40;;;;;;;-6.37;70.67;97840.56;5029605;28;20041;-79
2022/12/15 04:09:19;;;;;;;34.80;18.23;;;;;;;-6.47;70.38;97835.59;5023021;28;20065;-79
2022/12/15 04:11:44;;;;;;;44.30;18.20;;;;;;;-6.44;69.98;97850.03;5023838;28;20073;-79
2022/12/15 04:14:10;;;;;;;32.03;17.42;;;;;;;-6.49;70.22;97847.94;5012969;28;20053;-79
2022/12/15 04:16:35;;;;;;;32.60;16.73;;;;;;;-6.78;71.39;97850.25;5026215;28;20037;-79
2022/12/15 04:21:44;;;;;;;25.80;15.27;;;;;;;-6.55;70.76;97856.34;5027600;28;20044;-79
2022/12/15 05:32:33;;;;;;;37.22;19.52;;;;;;;-7.36;71.65;97891.06;5039760;28;20080;-79
2022/12/15 05:35:00;;;;;;;33.88;18.55;;;;;;;-7.26;71.13;97902.09;5037446;28;20034;-79
2022/12/15 05:37:25;;;;;;;42.33;18.90;;;;;;;-8.23;72.49;97916.50;5037261;28;20040;-79
2022/12/15 05:39:50;;;;;;;69.32;25.55;;;;;;;-8.17;74.98;97919.28;5020075;28;20045;-79
2022/12/15 05:42:16;;;;;;;46.28;22.27;;;;;;;-7.51;72.15;97927.13;5035952;28;20109;-79
2022/12/15 05:44:42;;;;;;;35.00;17.20;;;;;;;-7.61;71.55;97921.28;5037674;28;20072;-79
2022/12/15 05:47:08;;;;;;;48.28;21.77;;;;;;;-7.55;72.06;97919.84;5033110;28;20025;-79
2022/12/15 05:49:34;;;;;;;42.67;20.58;;;;;;;-7.55;72.89;97920.66;5027083;28;20032;-79
2022/12/15 05:52:00;;;;;;;32.25;18.85;;;;;;;-7.24;72.52;97929.47;5030225;28;20465;-79
2022/12/15 05:54:25;;;;;;;40.40;20.90;;;;;;;-7.38;72.38;97934.47;5029673;28;20078;-79
2022/12/15 05:56:51;;;;;;;36.28;19.58;;;;;;;-7.30;72.83;97942.25;5031953;28;20089;-79
2022/12/15 05:59:17;;;;;;;36.40;19.02;;;;;;;-7.20;72.29;97950.69;5031160;28;20109;-79
2022/12/15 06:01:43;;;;;;;38.85;18.23;;;;;;;-7.28;72.28;97948.09;5027323;28;20034;-79
2022/12/15 06:04:11;;;;;;;40.20;18.80;;;;;;;-7.28;72.41;97941.13;5047563;28;20048;-79
2022/12/15 06:06:37;;;;;;;42.83;18.67;;;;;;;-7.27;72.56;97942.75;5033699;28;20270;-79
2022/12/15 06:09:03;;;;;;;36.67;18.65;;;;;;;-7.21;72.61;97949.91;5032663;28;20025;-79
2022/12/15 06:11:28;;;;;;;36.35;19.85;;;;;;;-7.18;72.57;97951.34;5027935;28;20029;-79
2022/12/15 06:13:54;;;;;;;45.17;19.38;;;;;;;-7.14;72.67;97956.06;5033071;28;20064;-79
2022/12/15 06:16:22;;;;;;;46.13;20.00;;;;;;;-7.02;72.80;97949.59;5030687;28;20038;-79
2022/12/15 06:18:51;;;;;;;38.65;18.80;;;;;;;-7.12;72.76;97948.94;5049558;28;20505;-79
2022/12/15 06:21:19;;;;;;;42.35;18.67;;;;;;;-7.05;72.90;97957.69;5032890;28;20485;-79
2022/12/15 06:23:45;;;;;;;43.95;19.85;;;;;;;-8.17;74.56;97960.69;5035947;28;20123;-79
2022/12/15 06:26:18;;;;;;;38.88;20.75;;;;;;;-9.20;78.81;97976.09;5035510;28;20507;-79
2022/12/15 06:28:43;;;;;;;41.55;20.65;;;;;;;-8.38;80.67;97973.19;5046906;28;20493;-79
2022/12/15 06:31:10;;;;;;;52.22;20.40;;;;;;;-7.29;75.43;97962.81;5029811;28;20355;-79
2022/12/15 06:33:37;;;;;;;40.90;20.67;;;;;;;-7.03;73.87;97973.06;5035707;28;20025;-79
2022/12/15 06:36:07;;;;;;;40.38;21.00;;;;;;;-6.87;72.79;97960.16;5036991;28;20112;-79
2022/12/15 06:38:33;;;;;;;45.78;20.33;;;;;;;-6.93;72.99;97958.19;5035166;28;20025;-79
2022/12/15 06:41:00;;;;;;;40.92;21.08;;;;;;;-7.51;72.78;97965.22;5037547;28;20037;-79
2022/12/15 06:43:27;;;;;;;40.88;20.45;;;;;;;-9.18;77.91;97969.00;5042885;28;20068;-79
2022/12/15 06:45:53;;;;;;;40.67;21.50;;;;;;;-7.28;75.57;97972.25;5035583;28;20397;-79
2022/12/15 06:48:20;;;;;;;49.80;22.13;;;;;;;-7.78;76.48;97980.00;5033366;28;20115;-79
2022/12/15 06:50:46;;;;;;;43.15;21.08;;;;;;;-7.11;73.93;97978.25;5050940;28;20225;-79
2022/12/15 06:53:13;;;;;;;48.20;22.40;;;;;;;-6.98;73.03;97982.03;5037186;28;20261;-79
2022/12/15 06:55:38;;;;;;;36.40;20.40;;;;;;;-7.75;73.19;97977.06;5019299;28;20101;-79
2022/12/15 06:58:03;;;;;;;39.72;18.98;;;;;;;-7.72;75.17;97987.13;5033428;28;20071;-79
2022/12/15 07:00:29;;;;;;;44.10;20.58;;;;;;;-7.01;73.51;97989.31;5016115;28;20063;-79
2022/12/15 07:02:54;;;;;;;40.38;20.27;;;;;;;-6.86;71.89;97980.72;5033849;28;20041;-79
2022/12/15 07:05:20;;;;;;;36.35;19.27;;;;;;;-6.92;71.98;97986.56;5027869;28;20658;-79
2022/12/15 07:07:46;;;;;;;44.50;21.42;;;;;;;-8.33;72.69;97999.44;5033054;28;20033;-79
2022/12/15 07:10:11;;;;;;;42.42;20.92;;;;;;;-7.15;73.08;98008.06;5033990;28;20400;-79
2022/12/15 07:12:37;;;;;;;42.67;21.42;;;;;;;-7.79;72.58;98003.44;5034917;28;20169;-79
2022/12/15 07:15:03;;;;;;;44.25;21.67;;;;;;;-7.17;72.80;97997.88;5029095;28;20025;-79
2022/12/15 07:17:28;;;;;;;43.28;22.15;;;;;;;-6.84;71.73;98009.13;5015442;28;20119;-79
2022/12/15 07:19:54;;;;;;;42.13;20.70;;;;;;;-6.87;71.14;98007.66;5029785;28;20500;-79
2022/12/15 07:22:20;;;;;;;44.05;20.00;;;;;;;-6.91;71.21;98002.94;5009357;28;20477;-79
2022/12/15 07:24:46;;;;;;;49.15;20.98;;;;;;;-7.02;71.42;98016.19;5025474;28;20037;-79
2022/12/15 07:27:12;;;;;;;47.88;21.45;;;;;;;-7.01;71.17;98013.44;5026418;28;20056;-79
2022/12/15 07:29:37;;;;;;;45.72;21.27;;;;;;;-6.99;70.77;98006.31;5019897;28;20164;-79
2022/12/15 07:32:02;;;;;;;39.67;20.52;;;;;;;-6.96;71.35;98020.75;5004338;28;20348;-79
2022/12/15 07:34:28;;;;;;;36.75;20.38;;;;;;;-6.94;70.68;98029.16;5026069;28;20036;-78
2022/12/15 07:36:53;;;;;;;41.97;19.88;;;;;;;-7.03;71.03;98019.75;5013906;28;20033;-78
2022/12/15 07:39:18;;;;;;;40.42;21.80;;;;;;;-6.95;70.52;98037.94;5010787;28;20029;-79
2022/12/15 07:41:44;;;;;;;39.25;19.65;;;;;;;-7.02;70.65;98027.38;5029270;28;20033;-79
2022/12/15 07:44:09;;;;;;;39.95;20.05;;;;;;;-7.00;70.55;98025.44;5033131;28;21284;-79
2022/12/15 07:46:34;;;;;;;37.30;20.63;;;;;;;-6.99;70.83;98031.44;5028155;28;22113;-79
2022/12/15 07:49:00;;;;;;;43.17;19.27;;;;;;;-7.08;70.55;98024.63;5045837;28;20040;-79
2022/12/15 07:51:26;;;;;;;34.63;17.92;;;;;;;-6.90;70.11;98035.66;5028781;28;20030;-79
2022/12/15 07:53:52;;;;;;;37.90;18.98;;;;;;;-6.96;70.62;98031.13;5030912;28;20033;-79
2022/12/15 07:56:18;;;;;;;36.80;19.15;;;;;;;-6.90;71.20;98044.25;5028835;28;20666;-79
2022/12/15 07:58:43;;;;;;;39.63;18.83;;;;;;;-7.00;70.90;98035.81;5026646;28;20099;-79
2022/12/15 08:01:12;;;;;;;37.17;19.48;;;;;;;-6.78;70.46;98052.56;5029359;28;20064;-79
2022/12/15 08:03:37;;;;;;;43.10;21.05;;;;;;;-6.73;70.04;98037.34;5028954;28;20515;-79
2022/12/15 08:06:08;;;;;;;36.05;19.45;;;;;;;-6.67;69.82;98054.84;5028660;28;20081;-79
2022/12/15 08:08:34;;;;;;;35.95;18.17;;;;;;;-6.74;69.82;98048.66;5012814;28;20119;-80
2022/12/15 08:11:07;;;;;;;40.22;20.13;;;;;;;-6.77;70.32;98054.16;5022087;28;20057;-79
2022/12/15 08:13:33;;;;;;;44.75;22.15;;;;;;;-7.06;70.78;98059.78;5023318;28;20031;-79
2022/12/15 08:15:59;;;;;;;44.00;21.75;;;;;;;-8.23;74.55;98066.59;5044634;28;20053;-79
2022/12/15 08:18:24;;;;;;;47.83;21.42;;;;;;;-7.17;73.07;98051.47;5027770;28;20057;-79
2022/12/15 08:20:50;;;;;;;44.53;23.98;;;;;;;-7.12;72.13;98057.81;5012695;28;20036;-79
2022/12/15 08:23:15;;;;;;;40.45;21.20;;;;;;;-7.19;71.97;98074.16;5027819;28;20040;-79
2022/12/15 08:25:41;;;;;;;46.55;22.83;;;;;;;-7.44;73.51;98062.88;5028998;28;20143;-79
2022/12/15 08:28:07;;;;;;;44.63;22.13;;;;;;;-7.27;74.15;98064.56;5027722;28;20032;-79
2022/12/15 08:30:33;;;;;;;41.38;20.70;;;;;;;-6.94;72.47;98055.91;5028944;28;20400;-79
2022/12/15 08:32:58;;;;;;;44.65;21.98;;;;;;;-7.03;72.84;98053.44;5028120;28;20022;-79
2022/12/15 08:35:24;;;;;;;46.50;21.67;;;;;;;-6.96;73.06;98068.25;5030716;28;20033;-79
2022/12/15 08:37:49;;;;;;;47.35;23.63;;;;;;;-8.31;76.23;98071.72;5030070;28;20043;-79
2022/12/15 08:40:15;;;;;;;48.22;22.88;;;;;;;-7.76;76.66;98079.06;5027188;28;20059;-79
2022/12/15 08:42:40;;;;;;;45.30;22.35;;;;;;;-6.97;74.28;98081.38;5027539;28;20029;-79
2022/12/15 08:45:06;;;;;;;37.58;19.55;;;;;;;-6.84;73.32;98076.53;5021035;28;20037;-79
2022/12/15 08:47:32;;;;;;;46.05;23.00;;;;;;;-6.77;72.96;98085.28;5024872;28;20139;-79
2022/12/15 08:49:57;;;;;;;47.45;22.80;;;;;;;-6.46;72.56;98081.16;5012398;28;20037;-79
2022/12/15 08:52:22;;;;;;;47.85;22.08;;;;;;;-6.70;72.51;98073.31;5007386;28;20180;-79
2022/12/15 08:54:48;;;;;;;42.13;22.83;;;;;;;-6.59;72.61;98087.75;5029630;28;20056;-80
2022/12/15 08:57:14;;;;;;;40.95;21.95;;;;;;;-6.64;72.75;98083.06;5028989;28;20037;-80
2022/12/15 08:59:39;;;;;;;53.33;22.83;;;;;;;-6.71;72.82;98089.88;5023989;28;20036;-80
2022/12/15 09:02:06;;;;;;;43.55;23.15;;;;;;;-7.59;74.99;98079.94;5029544;28;20047;-80
2022/12/15 09:04:31;;;;;;;44.72;23.67;;;;;;;-7.73;76.55;98088.31;5026658;28;20120;-79
2022/12/15 09:06:57;;;;;;;49.42;22.58;;;;;;;-7.03;75.50;98092.34;5023920;28;20120;-80
2022/12/15 09:09:22;;;;;;;42.58;22.15;;;;;;;-6.83;74.18;98079.94;5030068;28;20040;-80
2022/12/15 09:11:48;;;;;;;50.33;23.33;;;;;;;-6.58;73.92;98089.41;5010540;28;20116;-80
2022/12/15 09:14:14;;;;;;;45.75;23.75;;;;;;;-6.64;73.96;98077.06;5013546;28;20022;-80
2022/12/15 09:16:40;;;;;;;52.92;22.35;;;;;;;-6.58;73.72;98082.44;4997554;28;20033;-80
2022/12/15 09:19:07;;;;;;;45.50;22.98;;;;;;;-6.87;74.82;98082.03;5022143;28;20041;-80
2022/12/15 09:21:32;;;;;;;38.63;21.48;;;;;;;-6.60;74.77;98093.94;5030375;28;20472;-80
2022/12/15 09:24:00;;;;;;;53.42;23.95;;;;;;;-6.87;74.87;98100.19;5028816;28;20099;-80
2022/12/15 09:26:28;;;;;;;44.45;21.75;;;;;;;-7.41;77.30;98092.84;5027594;28;20056;-80
2022/12/15 09:28:55;;;;;;;37.85;22.13;;;;;;;-7.21;77.28;98112.38;5029153;28;20146;-80
2022/12/15 09:31:23;;;;;;;44.92;22.05;;;;;;;-8.06;82.07;98112.34;5028172;28;20033;-80
2022/12/15 09:33:51;;;;;;;55.33;24.25;;;;;;;-8.50;83.67;98114.09;5012299;28;20035;-80
2022/12/15 09:36:18;;;;;;;52.70;25.05;;;;;;;-8.50;85.35;98130.44;5031172;28;20025;-80
2022/12/15 09:38:43;;;;;;;52.75;26.30;;;;;;;-8.71;85.90;98134.22;5027163;28;20445;-79
2022/12/15 09:41:12;;;;;;;45.85;24.60;;;;;;;-8.02;84.25;98139.53;5027669;28;20029;-80
2022/12/15 09:44:01;;;;;;;48.47;21.98;;;;;;;-7.79;83.15;98120.78;5049020;28;20061;-80
2022/12/15 09:46:53;;;;;;;50.78;24.15;;;;;;;-7.23;81.48;98122.09;5049873;28;20073;-80
2022/12/15 09:49:45;;;;;;;42.35;23.17;;;;;;;-7.16;79.53;98133.44;5028718;28;20373;-79
2022/12/15 09:52:14;;;;;;;48.22;23.52;;;;;;;-6.94;79.06;98135.50;5028526;28;20037;-80
2022/12/15 09:54:42;;;;;;;58.08;24.42;;;;;;;-7.41;81.17;98129.13;5016014;28;20036;-80
2022/12/15 09:57:21;;;;;;;43.03;21.40;;;;;;;-6.81;78.85;98133.28;5028503;28;20018;-80
2022/12/15 10:00:14;;;;;;;45.53;22.30;;;;;;;-6.32;76.68;98135.03;5027862;28;20025;-80
2022/12/15 10:03:08;;;;;;;39.97;21.35;;;;;;;-6.28;76.40;98138.94;5028035;28;20048;-80
2022/12/15 10:05:58;;;;;;;44.67;21.33;;;;;;;-6.28;75.97;98136.34;5028618;28;20116;-80
2022/12/15 10:08:29;;;;;;;44.90;20.98;;;;;;;-6.82;78.63;98138.63;5026544;28;20036;-80
2022/12/15 10:11:14;;;;;;;40.97;23.05;;;;;;;-6.33;76.53;98146.38;5032231;28;20499;-80
2022/12/15 10:14:03;;;;;;;55.92;24.17;;;;;;;-6.35;77.49;98150.91;5023935;28;20034;-80
2022/12/15 10:16:47;;;;;;;40.33;20.00;;;;;;;-6.20;76.62;98159.69;5042349;28;20164;-80
2022/12/15 10:19:18;;;;;;;45.03;22.38;;;;;;;-6.07;76.71;98155.84;5032340;28;20021;-80
2022/12/15 10:21:43;;;;;;;47.72;21.50;;;;;;;-6.19;77.21;98139.75;5029948;28;20147;-80
2022/12/15 10:24:20;;;;;;;45.10;21.02;;;;;;;-6.15;76.60;98143.66;5030111;28;20077;-80
2022/12/15 10:27:00;;;;;;;56.58;25.42;;;;;;;-5.88;76.25;98145.13;5028769;28;20083;-80
2022/12/15 10:29:39;;;;;;;46.50;23.55;;;;;;;-5.80;75.35;98138.09;5029316;28;20489;-80
2022/12/15 10:32:15;;;;;;;56.45;24.63;;;;;;;-5.59;75.04;98154.00;5029841;28;20029;-80
2022/12/15 10:34:41;;;;;;;;;;;;;;;-5.53;75.07;98155.97;5024535;28;20378;-80
2022/12/15 10:37:15;;;;;;;46.22;22.75;;;;;;;-6.09;77.37;98157.78;5042695;28;19960;-79
2022/12/15 10:39:42;;;;;;;47.92;24.15;;;;;;;-5.71;76.13;98154.50;5032660;28;20555;-80
2022/12/15 10:42:16;;;;;;;58.10;25.90;;;;;;;-5.97;77.12;98152.09;5028730;28;20476;-80
2022/12/15 10:44:44;;;;;;;50.38;22.48;;;;;;;-5.53;75.57;98142.97;5033694;28;20064;-80
2022/12/15 10:47:30;;;;;;;50.40;21.85;;;;;;;-6.59;80.74;98153.44;5031388;28;20029;-80
2022/12/15 10:50:15;;;;;;;;;;;;;;;-5.85;77.78;98155.19;5028256;28;20029;-80
2022/12/15 10:52:41;;;;;;;52.72;23.30;;;;;;;-5.76;77.57;98148.97;5025870;28;20000;-80
2022/12/15 10:55:38;;;;;;;47.70;23.85;;;;;;;-6.49;80.35;98151.56;5010458;28;20112;-79
2022/12/15 10:58:21;;;;;;;46.50;23.17;;;;;;;-6.17;80.67;98156.78;5025941;28;20052;-80
2022/12/15 11:01:03;;;;;;;43.30;22.20;;;;;;;-6.18;80.07;98159.56;5025945;28;20036;-80
2022/12/15 11:03:35;;;;;;;57.35;24.88;;;;;;;-5.87;78.79;98144.13;5029838;28;20044;-80
2022/12/15 11:06:00;;;;;;;54.38;23.50;;;;;;;-5.65;78.81;98144.28;5028073;28;20124;-79
2022/12/15 11:08:28;;;;;;;47.35;22.08;;;;;;;-5.28;78.18;98146.31;5028206;28;20475;-79
2022/12/15 11:14:04;;;;;;;49.45;22.98;;;;;;;-5.72;79.88;98145.88;5025643;28;20079;-80
2022/12/15 11:16:30;;;;;;;54.88;25.17;;;;;;;-5.19;78.78;98134.91;5030132;28;20026;-80
2022/12/15 11:19:21;;;;;;;55.53;24.67;;;;;;;-5.29;77.68;98129.09;5027777;28;20174;-80
2022/12/15 11:22:02;;;;;;;49.05;23.13;;;;;;;-5.27;79.15;98141.94;5025915;28;20037;-80
2022/12/15 11:25:11;;;;;;;55.67;23.30;;;;;;;-5.23;79.30;98156.22;5025417;28;20029;-79
2022/12/15 11:27:38;;;;;;;46.60;24.23;;;;;;;-6.21;82.17;98132.13;5028637;28;20025;-80
2022/12/15 11:30:23;;;;;;;49.05;21.85;;;;;;;-6.05;82.86;98140.91;5028289;28;20040;-80
2022/12/15 11:32:52;;;;;;;47.78;23.35;;;;;;;-6.25;84.98;98143.00;5027702;28;20255;-79
2022/12/15 11:35:50;;;;;;;62.58;25.05;;;;;;;-5.99;83.74;98143.66;5024204;28;20040;-79
2022/12/15 11:38:49;;;;;;;50.38;23.35;;;;;;;-5.32;81.90;98124.22;5010833;28;20041;-80
2022/12/15 11:41:46;;;;;;;53.78;23.65;;;;;;;-5.21;79.37;98116.06;5025025;28;20115;-80
2022/12/15 11:44:27;;;;;;;51.10;21.98;;;;;;;-5.21;80.37;98125.66;5046259;28;20029;-80
2022/12/15 11:47:16;;;;;;;44.60;23.17;;;;;;;-4.47;77.60;98120.78;5025561;28;20397;-79
2022/12/15 11:49:59;;;;;;;48.53;23.58;;;;;;;-4.35;77.02;98116.00;5027844;28;20087;-80
2022/12/15 11:52:57;;;;;;;45.35;23.33;;;;;;;-4.23;76.44;98127.63;5031566;28;20506;-80
2022/12/15 11:55:38;;;;;;;48.88;23.85;;;;;;;-4.21;77.06;98129.09;5032074;28;20472;-80
2022/12/15 11:58:22;;;;;;;42.22;21.75;;;;;;;-4.08;76.21;98131.94;5046376;28;20459;-80
2022/12/15 12:00:58;;;;;;;50.78;23.73;;;;;;;-4.05;76.45;98121.16;5038905;28;20037;-80
2022/12/15 12:04:04;;;;;;;50.55;24.92;;;;;;;-4.09;76.19;98132.09;5027330;28;20033;-80
2022/12/15 12:06:42;;;;;;;53.08;27.05;;;;;;;-4.49;77.65;98127.16;5027329;28;20048;-80
2022/12/15 12:09:45;;;;;;;52.80;23.27;;;;;;;-4.17;76.88;98134.78;5026404;28;20427;-80
2022/12/15 12:12:34;;;;;;;53.63;24.05;;;;;;;-4.18;77.05;98117.50;5000074;28;20488;-80
2022/12/15 12:15:12;;;;;;;55.33;25.80;;;;;;;-3.88;76.59;98109.63;5013297;28;20353;-80
2022/12/15 12:17:57;;;;;;;47.40;24.42;;;;;;;-4.20;78.49;98111.66;5022497;28;20095;-80
2022/12/15 12:20:38;;;;;;;53.65;25.45;;;;;;;-4.16;78.33;98128.56;5024893;28;20064;-80
2022/12/15 12:23:14;;;;;;;47.50;25.25;;;;;;;-3.85;77.93;98108.47;5030837;28;20489;-80
2022/12/15 12:25:44;;;;;;;;;;;;;;;-4.72;80.08;98125.31;5032868;28;20043;-80
2022/12/15 12:28:21;;;;;;;47.13;23.50;;;;;;;-4.43;80.40;98108.25;5030281;28;20411;-80
2022/12/15 12:30:47;;;;;;;52.88;25.35;;;;;;;-3.97;77.85;98104.66;5029079;28;20014;-80
2022/12/15 12:33:25;;;;;;;44.28;23.88;;;;;;;-3.91;78.64;98120.38;5007395;28;20033;-80
2022/12/15 12:35:58;;;;;;;56.00;23.90;;;;;;;-3.89;78.15;98109.81;5021449;28;20084;-80
2022/12/15 12:38:30;;;;;;;46.22;24.45;;;;;;;-3.70;77.79;98111.91;5027298;28;20025;-80
2022/12/15 12:41:15;;;;;;;54.28;26.08;;;;;;;-4.13;77.71;98089.16;5028242;28;20029;-80
2022/12/15 12:44:00;;;;;;;48.08;24.77;;;;;;;-3.80;79.09;98104.34;5024371;28;20029;-80
2022/12/15 12:46:50;;;;;;;43.43;22.93;;;;;;;-3.86;77.48;98101.63;5024240;28;20048;-80
2022/12/15 12:49:38;;;;;;;46.03;24.42;;;;;;;-3.57;78.25;98104.31;5024248;28;20761;-80
2022/12/15 12:52:05;;;;;;;50.80;24.77;;;;;;;-3.70;77.56;98100.69;5027931;28;20029;-80
2022/12/15 12:54:36;;;;;;;44.42;23.95;;;;;;;-3.38;76.87;98102.97;5026591;28;20318;-80
2022/12/15 12:57:12;;;;;;;46.63;23.42;;;;;;;-3.50;77.14;98094.78;5025238;28;20449;-80
2022/12/15 12:59:45;;;;;;;47.60;24.50;;;;;;;-3.25;76.60;98098.75;5029472;28;20030;-80
2022/12/15 13:02:14;;;;;;;45.45;23.35;;;;;;;-3.31;76.38;98093.44;5026993;28;20750;-80
2022/12/15 13:04:49;;;;;;;49.60;25.33;;;;;;;-3.56;76.96;98087.66;5026200;28;20179;-80
2022/12/15 13:07:36;;;;;;;50.38;27.67;;;;;;;-3.78;76.91;98085.94;5029549;28;20480;-80
2022/12/15 13:10:08;;;;;;;47.08;25.17;;;;;;;-4.34;80.98;98094.16;5024187;28;20429;-80
2022/12/15 13:12:53;;;;;;;47.40;24.48;;;;;;;-3.66;78.67;98083.69;5029539;28;20253;-79
2022/12/15 13:15:41;;;;;;;64.73;28.13;;;;;;;-3.97;78.63;98083.81;5027737;28;20037;-80
2022/12/15 13:18:24;;;;;;;52.83;29.67;;;;;;;-4.30;81.18;98090.25;5027034;28;20041;-80
2022/12/15 13:20:54;;;;;;;52.33;24.92;;;;;;;-4.33;80.41;98081.00;5023130;28;20033;-80
2022/12/15 13:23:22;;;;;;;63.22;26.98;;;;;;;-4.67;81.27;98078.75;5024819;28;20033;-80
2022/12/15 13:25:57;;;;;;;65.38;28.67;;;;;;;-5.22;82.77;98085.84;5025222;28;20045;-80
2022/12/15 13:28:34;;;;;;;48.13;23.98;;;;;;;-4.48;83.40;98077.53;5024773;28;20512;-79
2022/12/15 13:31:15;;;;;;;49.42;25.00;;;;;;;-3.98;80.13;98082.19;5025933;28;20505;-79
2022/12/15 13:34:29;;;;;;;47.80;25.05;;;;;;;-3.69;78.86;98074.41;5027550;28;20033;-79
2022/12/15 13:36:56;;;;;;;47.50;24.77;;;;;;;-3.65;78.12;98077.50;5025454;28;20041;-80
2022/12/15 13:39:21;;;;;;;49.65;26.35;;;;;;;-4.57;79.30;98073.34;5025984;28;20029;-80
2022/12/15 13:41:55;;;;;;;55.08;25.52;;;;;;;-4.06;79.78;98069.22;5024677;28;20044;-79
2022/12/15 13:44:31;;;;;;;44.05;24.50;;;;;;;-3.74;77.86;98053.31;5035071;28;20026;-80
2022/12/15 13:47:27;;;;;;;43.45;23.83;;;;;;;-3.67;77.01;98062.03;5039643;28;20492;-80
2022/12/15 13:50:14;;;;;;;47.83;24.38;;;;;;;-3.64;77.79;98068.69;5013255;28;20045;-80
2022/12/15 13:52:52;;;;;;;42.22;21.88;;;;;;;-3.63;76.75;98073.72;5025781;28;20025;-80
2022/12/15 13:55:21;;;;;;;45.25;21.95;;;;;;;-3.63;76.79;98078.94;5006274;28;20029;-80
2022/12/15 13:58:02;;;;;;;51.42;25.63;;;;;;;-3.57;76.22;98072.19;5028114;28;20064;-80
2022/12/15 14:00:28;;;;;;;47.88;24.02;;;;;;;-3.53;76.29;98086.50;5027783;28;20511;-80
2022/12/15 14:03:10;;;;;;;46.50;24.00;;;;;;;-3.46;76.38;98075.19;5024071;28;20132;-80
2022/12/15 14:05:37;;;;;;;48.72;24.77;;;;;;;-3.59;77.14;98068.97;5023278;28;20029;-80